Time;durP1;ratioP1;P1;durP2;ratioP2;P2;SDS_P1;SDS_P2;PMS_P1;PMS_P2;Temp;Humidity;BMP_temperature;BMP_pressure;BME280_temperature;BME280_humidity;BME280_pressure;Samples;Min_cycle;Max_cycle;Signal;HPM_P1;HPM_P2
2023/06/12 00:01:23;;;;;;;;;;;;;;;;;;5036096;28;20380;-76
2023/06/12 00:03:50;;;;;;;;;;;;;;;;;;5035247;28;20363;-73
2023/06/12 00:06:17;;;;;;;;;;;;;;;;;;5036929;28;19963;-74
2023/06/12 00:08:44;;;;;;;;;;;;;;;;;;5037444;28;20012;-74
2023/06/12 00:11:12;;;;;;;;;;;;;;;;;;5037376;28;19925;-74
2023/06/12 00:13:39;;;;;;;;;;;;;;;;;;5038786;28;19932;-74
2023/06/12 00:16:06;;;;;;;;;;;;;;;;;;5039080;28;20016;-75
2023/06/12 00:18:33;;;;;;;;;;;;;;;;;;5033730;28;20478;-74
2023/06/12 00:21:01;;;;;;;;;;;;;;;;;;5036199;28;20383;-74
2023/06/12 00:23:28;;;;;;;;;;;;;;;;;;5034270;28;19929;-74
2023/06/12 00:25:55;;;;;;;;;;;;;;;;;;5033992;28;20024;-74
2023/06/12 00:28:22;;;;;;;;;;;;;;;;;;5050882;28;19933;-74
2023/06/12 00:30:49;;;;;;;;;;;;;;;;;;5053689;28;19925;-74
2023/06/12 00:33:16;;;;;;;;;;;;;;;;;;5054094;28;19925;-74
2023/06/12 00:35:43;;;;;;;;;;;;;;;;;;5054012;28;19925;-74
2023/06/12 00:38:11;;;;;;;;;;;;;;;;;;5047113;28;20019;-73
2023/06/12 00:40:38;;;;;;;;;;;;;;;;;;5043270;28;19929;-73
2023/06/12 00:43:05;;;;;;;;;;;;;;;;;;5053025;28;19925;-74
2023/06/12 00:45:32;;;;;;;;;;;;;;;;;;5038724;28;19925;-74
2023/06/12 00:47:59;;;;;;;;;;;;;;;;;;5043824;28;20349;-74
2023/06/12 00:50:27;;;;;;;;;;;;;;;;;;5048129;28;20418;-74
2023/06/12 00:52:54;;;;;;;;;;;;;;;;;;5053670;28;20355;-74
2023/06/12 00:55:21;;;;;;;;;;;;;;;;;;5053460;28;20095;-74
2023/06/12 00:57:48;;;;;;;;;;;;;;;;;;5044000;28;20299;-74
2023/06/12 01:00:17;;;;;;;;;;;;;;;;;;5042523;28;20378;-74
2023/06/12 01:02:44;;;;;;;;;;;;;;;;;;5045841;28;19925;-74
2023/06/12 01:05:11;;;;;;;;;;;;;;;;;;5047004;28;19944;-74
2023/06/12 01:07:38;;;;;;;;;;;;;;;;;;5037118;28;19929;-73
2023/06/12 01:10:05;;;;;;;;;;;;;;;;;;5048570;28;19925;-73
2023/06/12 01:12:32;;;;;;;;;;;;;;;;;;5043254;28;19971;-74
2023/06/12 01:14:59;;;;;;;;;;;;;;;;;;5044608;28;19931;-73
2023/06/12 01:17:27;;;;;;;;;;;;;;;;;;5048769;28;19960;-73
2023/06/12 01:19:56;;;;;;;;;;;;;;;;;;5049551;28;19924;-74
2023/06/12 01:22:23;;;;;;;;;;;;;;;;;;5046850;28;19932;-74
2023/06/12 01:24:50;;;;;;;;;;;;;;;;;;5036938;28;20372;-74
2023/06/12 01:27:17;;;;;;;;;;;;;;;;;;5045523;28;20807;-74
2023/06/12 01:29:44;;;;;;;;;;;;;;;;;;5052461;28;20295;-74
2023/06/12 01:32:11;;;;;;;;;;;;;;;;;;5035889;28;19932;-74
2023/06/12 01:34:38;;;;;;;;;;;;;;;;;;5035599;28;19976;-74
2023/06/12 01:37:06;;;;;;;;;;;;;;;;;;5042905;28;19933;-74
2023/06/12 01:39:33;;;;;;;;;;;;;;;;;;5043887;28;19925;-74
2023/06/12 01:42:00;;;;;;;;;;;;;;;;;;5039996;28;20023;-73
2023/06/12 01:44:27;;;;;;;;;;;;;;;;;;5049045;28;20354;-74
2023/06/12 01:46:54;;;;;;;;;;;;;;;;;;5050075;28;20299;-75
2023/06/12 01:49:21;;;;;;;;;;;;;;;;;;5048018;28;20298;-74
2023/06/12 01:51:47;;;;;;;;;;;;;;;;;;5051434;28;20307;-74
2023/06/12 01:54:15;;;;;;;;;;;;;;;;;;5044105;28;20385;-74
2023/06/12 01:56:42;;;;;;;;;;;;;;;;;;5043592;28;19925;-74
2023/06/12 01:59:11;;;;;;;;;;;;;;;;;;5051787;28;20011;-74
2023/06/12 02:01:38;;;;;;;;;;;;;;;;;;5045917;28;19937;-74
2023/06/12 02:04:06;;;;;;;;;;;;;;;;;;5049948;28;19924;-74
2023/06/12 02:06:33;;;;;;;;;;;;;;;;;;5052180;28;19925;-74
2023/06/12 02:09:00;;;;;;;;;;;;;;;;;;5055175;28;19925;-76
2023/06/12 02:11:27;;;;;;;;;;;;;;;;;;5072215;28;19974;-75
2023/06/12 02:13:54;;;;;;;;;;;;;;;;;;5055239;28;20007;-75
2023/06/12 02:16:21;;;;;;;;;;;;;;;;;;5051411;28;20007;-74
2023/06/12 02:18:48;;;;;;;;;;;;;;;;;;5047571;28;19929;-74
2023/06/12 02:21:15;;;;;;;;;;;;;;;;;;5032389;28;20004;-74
2023/06/12 02:23:42;;;;;;;;;;;;;;;;;;5039015;28;19931;-74
2023/06/12 02:26:09;;;;;;;;;;;;;;;;;;5043085;28;19992;-75
2023/06/12 02:28:36;;;;;;;;;;;;;;;;;;5034373;28;20016;-75
2023/06/12 02:31:04;;;;;;;;;;;;;;;;;;5044456;28;19925;-75
2023/06/12 02:33:31;;;;;;;;;;;;;;;;;;5035706;28;19932;-74
2023/06/12 02:35:58;;;;;;;;;;;;;;;;;;5038100;28;19925;-74
2023/06/12 02:38:27;;;;;;;;;;;;;;;;;;5049591;28;20007;-75
2023/06/12 02:40:54;;;;;;;;;;;;;;;;;;5043787;28;19931;-74
2023/06/12 02:43:21;;;;;;;;;;;;;;;;;;5046899;28;19991;-75
2023/06/12 02:45:48;;;;;;;;;;;;;;;;;;5047923;28;20019;-74
2023/06/12 02:48:15;;;;;;;;;;;;;;;;;;5044165;28;19931;-74
2023/06/12 02:50:42;;;;;;;;;;;;;;;;;;5031903;28;20020;-75
2023/06/12 02:53:10;;;;;;;;;;;;;;;;;;5032366;28;20331;-74
2023/06/12 02:55:39;;;;;;;;;;;;;;;;;;5050142;28;20393;-74
2023/06/12 02:58:06;;;;;;;;;;;;;;;;;;5044714;28;20463;-74
2023/06/12 03:00:33;;;;;;;;;;;;;;;;;;5047447;28;20452;-74
2023/06/12 03:03:00;;;;;;;;;;;;;;;;;;5041791;28;20051;-74
2023/06/12 03:05:27;;;;;;;;;;;;;;;;;;5044955;28;20384;-74
2023/06/12 03:07:54;;;;;;;;;;;;;;;;;;5048254;28;19943;-74
2023/06/12 03:10:21;;;;;;;;;;;;;;;;;;5039432;28;20380;-74
2023/06/12 03:12:48;;;;;;;;;;;;;;;;;;5035361;28;19964;-74
2023/06/12 03:15:16;;;;;;;;;;;;;;;;;;5038896;28;20008;-74
2023/06/12 03:17:43;;;;;;;;;;;;;;;;;;5042428;28;19951;-73
2023/06/12 03:20:10;;;;;;;;;;;;;;;;;;5056801;28;19936;-73
2023/06/12 03:22:37;;;;;;;;;;;;;;;;;;5055627;28;19931;-74
2023/06/12 03:25:05;;;;;;;;;;;;;;;;;;5041691;28;19936;-74
2023/06/12 03:27:32;;;;;;;;;;;;;;;;;;5046950;28;19971;-75
2023/06/12 03:29:59;;;;;;;;;;;;;;;;;;5047793;28;19931;-75
2023/06/12 03:32:26;;;;;;;;;;;;;;;;;;5046121;28;20016;-75
2023/06/12 03:34:54;;;;;;;;;;;;;;;;;;5050548;28;20019;-75
2023/06/12 03:37:21;;;;;;;;;;;;;;;;;;5051208;28;19925;-74
2023/06/12 03:39:48;;;;;;;;;;;;;;;;;;5046485;28;19925;-75
2023/06/12 03:42:16;;;;;;;;;;;;;;;;;;5048481;28;19932;-74
2023/06/12 03:44:43;;;;;;;;;;;;;;;;;;5044014;28;19936;-76
2023/06/12 03:47:11;;;;;;;;;;;;;;;;;;5047720;28;19971;-75
2023/06/12 03:49:38;;;;;;;;;;;;;;;;;;5049937;28;20007;-75
2023/06/12 03:52:05;;;;;;;;;;;;;;;;;;5045416;28;20012;-76
2023/06/12 03:54:32;;;;;;;;;;;;;;;;;;5041679;28;20012;-74
2023/06/12 03:56:59;;;;;;;;;;;;;;;;;;5048184;28;19924;-75
2023/06/12 03:59:26;;;;;;;;;;;;;;;;;;5064082;28;19925;-75
2023/06/12 04:01:53;;;;;;;;;;;;;;;;;;5050237;28;19924;-74
2023/06/12 04:04:20;;;;;;;;;;;;;;;;;;5053861;28;20008;-75
2023/06/12 04:06:47;;;;;;;;;;;;;;;;;;5046725;28;19931;-74
2023/06/12 04:09:14;;;;;;;;;;;;;;;;;;5052863;28;19972;-74
2023/06/12 04:11:41;;;;;;;;;;;;;;;;;;5037642;28;19928;-75
2023/06/12 04:14:08;;;;;;;;;;;;;;;;;;5038201;28;20016;-75
2023/06/12 04:16:35;;;;;;;;;;;;;;;;;;5043883;28;20023;-75
2023/06/12 04:19:03;;;;;;;;;;;;;;;;;;5043131;28;19932;-75
2023/06/12 04:21:30;;;;;;;;;;;;;;;;;;5034420;28;19999;-73
2023/06/12 04:23:58;;;;;;;;;;;;;;;;;;5046397;28;20011;-73
2023/06/12 04:26:27;;;;;;;;;;;;;;;;;;5036100;28;21363;-73
2023/06/12 04:28:54;;;;;;;;;;;;;;;;;;5041933;28;19925;-74
2023/06/12 04:31:21;;;;;;;;;;;;;;;;;;5033802;28;20589;-73
2023/06/12 04:33:51;;;;;;;;;;;;;;;;;;5033846;28;20369;-73
2023/06/12 04:36:18;;;;;;;;;;;;;;;;;;5035264;28;20016;-74
2023/06/12 04:38:50;;;;;;;;;;;;;;;;;;5049121;28;20307;-74
2023/06/12 04:41:17;;;;;;;;;;;;;;;;;;5037515;28;19925;-73
2023/06/12 04:43:44;;;;;;;;;;;;;;;;;;5034351;28;19952;-74
2023/06/12 04:46:13;;;;;;;;;;;;;;;;;;5053414;28;19935;-74
2023/06/12 04:48:41;;;;;;;;;;;;;;;;;;5052107;28;19924;-73
2023/06/12 04:51:08;;;;;;;;;;;;;;;;;;5033251;28;20361;-73
2023/06/12 04:53:39;;;;;;;;;;;;;;;;;;5033886;28;20623;-73
2023/06/12 04:56:08;;;;;;;;;;;;;;;;;;5039266;28;20027;-72
2023/06/12 04:58:35;;;;;;;;;;;;;;;;;;5043250;28;19924;-72
2023/06/12 05:01:02;;;;;;;;;;;;;;;;;;5044162;28;19925;-75
2023/06/12 05:03:32;;;;;;;;;;;;;;;;;;5051059;28;19924;-74
2023/06/12 05:05:59;;;;;;;;;;;;;;;;;;5050839;28;19931;-74
2023/06/12 05:08:26;;;;;;;;;;;;;;;;;;5059103;28;20019;-74
2023/06/12 05:10:53;;;;;;;;;;;;;;;;;;5050777;28;19924;-75
2023/06/12 05:13:20;;;;;;;;;;;;;;;;;;5045615;28;19925;-74
2023/06/12 05:15:47;;;;;;;;;;;;;;;;;;5039911;28;19960;-74
2023/06/12 05:18:14;;;;;;;;;;;;;;;;;;5049028;28;20014;-74
2023/06/12 05:20:42;;;;;;;;;;;;;;;;;;5048710;28;20445;-75
2023/06/12 05:23:09;;;;;;;;;;;;;;;;;;5070649;28;20393;-76
2023/06/12 05:25:36;;;;;;;;;;;;;;;;;;5067628;28;19929;-75
2023/06/12 05:28:04;;;;;;;;;;;;;;;;;;5045295;28;20403;-77
2023/06/12 05:30:31;;;;;;;;;;;;;;;;;;5047878;28;20343;-77
2023/06/12 05:32:59;;;;;;;;;;;;;;;;;;5041195;28;20375;-77
2023/06/12 05:35:26;;;;;;;;;;;;;;;;;;5050164;28;19932;-76
2023/06/12 05:37:53;;;;;;;;;;;;;;;;;;5046381;28;19928;-75
2023/06/12 05:40:20;;;;;;;;;;;;;;;;;;5042393;28;19944;-76
2023/06/12 05:42:47;;;;;;;;;;;;;;;;;;5050223;28;19979;-76
2023/06/12 05:45:14;;;;;;;;;;;;;;;;;;5044048;28;19925;-76
2023/06/12 05:47:41;;;;;;;;;;;;;;;;;;5041080;28;19971;-76
2023/06/12 05:50:08;;;;;;;;;;;;;;;;;;5049965;28;20374;-77
2023/06/12 05:52:35;;;;;;;;;;;;;;;;;;5046884;28;20295;-77
2023/06/12 05:55:02;;;;;;;;;;;;;;;;;;5051813;28;19928;-76
2023/06/12 05:57:30;;;;;;;;;;;;;;;;;;5052032;28;19987;-77
2023/06/12 05:59:57;;;;;;;;;;;;;;;;;;5048185;28;19929;-77
2023/06/12 06:02:24;;;;;;;;;;;;;;;;;;5052553;28;20024;-76
2023/06/12 06:04:53;;;;;;;;;;;;;;;;;;5046099;28;19924;-77
2023/06/12 06:07:21;;;;;;;;;;;;;;;;;;5040206;28;19925;-76
2023/06/12 06:09:48;;;;;;;;;;;;;;;;;;5036384;28;19925;-77
2023/06/12 06:12:15;;;;;;;;;;;;;;;;;;5045838;28;20284;-76
2023/06/12 06:14:42;;;;;;;;;;;;;;;;;;5038721;28;20019;-77
2023/06/12 06:17:09;;;;;;;;;;;;;;;;;;5052732;28;19978;-76
2023/06/12 06:19:36;;;;;;;;;;;;;;;;;;5052239;28;19925;-75
2023/06/12 06:22:04;;;;;;;;;;;;;;;;;;5039332;28;19929;-75
2023/06/12 06:24:31;;;;;;;;;;;;;;;;;;5037228;28;19925;-76
2023/06/12 06:26:58;;;;;;;;;;;;;;;;;;5051918;28;20020;-76
2023/06/12 06:29:25;;;;;;;;;;;;;;;;;;5048670;28;20019;-76
2023/06/12 06:31:52;;;;;;;;;;;;;;;;;;5049997;28;19990;-76
2023/06/12 06:34:20;;;;;;;;;;;;;;;;;;5052282;28;19967;-76
2023/06/12 06:36:47;;;;;;;;;;;;;;;;;;5052569;28;19953;-76
2023/06/12 06:39:14;;;;;;;;;;;;;;;;;;5038762;28;20368;-76
2023/06/12 06:41:41;;;;;;;;;;;;;;;;;;5032149;28;19947;-76
2023/06/12 06:44:07;;;;;;;;;;;;;;;;;;5033214;28;20024;-75
2023/06/12 06:46:34;;;;;;;;;;;;;;;;;;5052428;28;20039;-75
2023/06/12 06:49:02;;;;;;;;;;;;;;;;;;5042999;28;19944;-75
2023/06/12 06:51:29;;;;;;;;;;;;;;;;;;5051025;28;19934;-76
2023/06/12 06:53:57;;;;;;;;;;;;;;;;;;5054790;28;19924;-74
2023/06/12 06:56:24;;;;;;;;;;;;;;;;;;5045542;28;20472;-77
2023/06/12 06:58:51;;;;;;;;;;;;;;;;;;5056275;28;20358;-76
2023/06/12 07:01:18;;;;;;;;;;;;;;;;;;5055936;28;20332;-75
2023/06/12 07:03:45;;;;;;;;;;;;;;;;;;5055761;28;20015;-75
2023/06/12 07:06:12;;;;;;;;;;;;;;;;;;5044585;28;19941;-76
2023/06/12 07:08:39;;;;;;;;;;;;;;;;;;5038614;28;19926;-75
2023/06/12 07:11:06;;;;;;;;;;;;;;;;;;5038368;28;20020;-75
2023/06/12 07:13:33;;;;;;;;;;;;;;;;;;5053909;28;20403;-75
2023/06/12 07:16:00;;;;;;;;;;;;;;;;;;5056016;28;20364;-76
2023/06/12 07:18:27;;;;;;;;;;;;;;;;;;5055544;28;20363;-76
2023/06/12 07:20:54;;;;;;;;;;;;;;;;;;5052437;28;20003;-75
2023/06/12 07:23:21;;;;;;;;;;;;;;;;;;5035398;28;19979;-75
2023/06/12 07:25:48;;;;;;;;;;;;;;;;;;5053078;28;20019;-75
2023/06/12 07:28:15;;;;;;;;;;;;;;;;;;5055101;28;19925;-76
2023/06/12 07:30:42;;;;;;;;;;;;;;;;;;5053227;28;19932;-76
2023/06/12 07:33:09;;;;;;;;;;;;;;;;;;5052030;28;20011;-75
2023/06/12 07:35:36;;;;;;;;;;;;;;;;;;5038485;28;19925;-76
2023/06/12 07:38:03;;;;;;;;;;;;;;;;;;5034995;28;20402;-76
2023/06/12 07:40:30;;;;;;;;;;;;;;;;;;5034861;28;19925;-74
2023/06/12 07:42:57;;;;;;;;;;;;;;;;;;5034851;28;19925;-77
2023/06/12 07:45:24;;;;;;;;;;;;;;;;;;5035493;28;19964;-74
2023/06/12 07:47:52;;;;;;;;;;;;;;;;;;5053306;28;19975;-74
2023/06/12 07:50:20;;;;;;;;;;;;;;;;;;5053065;28;19925;-74
2023/06/12 07:52:46;;;;;;;;;;;;;;;;;;5054803;28;20368;-75
2023/06/12 07:55:14;;;;;;;;;;;;;;;;;;5042603;28;20313;-75
2023/06/12 07:57:41;;;;;;;;;;;;;;;;;;5034380;28;20016;-75
2023/06/12 08:00:08;;;;;;;;;;;;;;;;;;5034549;28;20296;-74
2023/06/12 08:02:35;;;;;;;;;;;;;;;;;;5035295;28;19979;-74
2023/06/12 08:05:03;;;;;;;;;;;;;;;;;;5054763;28;19925;-73
2023/06/12 08:07:30;;;;;;;;;;;;;;;;;;5054647;28;20402;-74
2023/06/12 08:09:57;;;;;;;;;;;;;;;;;;5053562;28;19925;-73
2023/06/12 08:12:24;;;;;;;;;;;;;;;;;;5054488;28;19928;-74
2023/06/12 08:14:51;;;;;;;;;;;;;;;;;;5054217;28;19924;-74
2023/06/12 08:17:20;;;;;;;;;;;;;;;;;;5054060;28;20308;-74
2023/06/12 08:19:47;;;;;;;;;;;;;;;;;;5054063;28;19944;-73
2023/06/12 08:22:15;;;;;;;;;;;;;;;;;;5034304;28;20324;-73
2023/06/12 08:24:43;;;;;;;;;;;;;;;;;;5035467;28;19932;-74
2023/06/12 08:27:11;;;;;;;;;;;;;;;;;;5035996;28;19971;-73
2023/06/12 08:29:39;;;;;;;;;;;;;;;;;;5053871;28;19932;-75
2023/06/12 08:32:06;;;;;;;;;;;;;;;;;;5047614;28;20273;-74
2023/06/12 08:34:33;;;;;;;;;;;;;;;;;;5047406;28;20342;-73
2023/06/12 08:37:00;;;;;;;;;;;;;;;;;;5043280;28;20019;-74
2023/06/12 08:39:27;;;;;;;;;;;;;;;;;;5041136;28;19952;-73
2023/06/12 08:41:54;;;;;;;;;;;;;;;;;;5048465;28;19964;-74
2023/06/12 08:44:21;;;;;;;;;;;;;;;;;;5041199;28;20560;-73
2023/06/12 08:46:48;;;;;;;;;;;;;;;;;;5041489;28;19979;-72
2023/06/12 08:49:15;;;;;;;;;;;;;;;;;;5034635;28;19932;-73
2023/06/12 08:51:43;;;;;;;;;;;;;;;;;;5037389;28;19982;-73
2023/06/12 08:54:10;;;;;;;;;;;;;;;;;;5041569;28;19932;-74
2023/06/12 08:56:37;;;;;;;;;;;;;;;;;;5042223;28;19935;-73
2023/06/12 08:59:04;;;;;;;;;;;;;;;;;;5040405;28;20032;-74
2023/06/12 09:01:31;;;;;;;;;;;;;;;;;;5041176;28;20019;-75
2023/06/12 09:04:00;;;;;;;;;;;;;;;;;;5046426;28;20400;-74
2023/06/12 09:06:27;;;;;;;;;;;;;;;;;;5040993;28;20444;-73
2023/06/12 09:08:54;;;;;;;;;;;;;;;;;;5041775;28;19928;-74
2023/06/12 09:11:21;;;;;;;;;;;;;;;;;;5038171;28;19924;-74
2023/06/12 09:13:48;;;;;;;;;;;;;;;;;;5037069;28;19931;-74
2023/06/12 09:16:15;;;;;;;;;;;;;;;;;;5041027;28;19932;-74
2023/06/12 09:18:42;;;;;;;;;;;;;;;;;;5039545;28;20292;-73
2023/06/12 09:21:09;;;;;;;;;;;;;;;;;;5043517;28;20016;-73
2023/06/12 09:23:37;;;;;;;;;;;;;;;;;;5045807;28;19925;-73
2023/06/12 09:26:05;;;;;;;;;;;;;;;;;;5039337;28;20012;-73
2023/06/12 09:28:36;;;;;;;;;;;;;;;;;;5042796;28;19925;-72
2023/06/12 09:31:04;;;;;;;;;;;;;;;;;;5042889;28;19929;-74
2023/06/12 09:33:31;;;;;;;;;;;;;;;;;;5036464;28;19925;-73
2023/06/12 09:35:58;;;;;;;;;;;;;;;;;;5048250;28;20475;-72
2023/06/12 09:38:25;;;;;;;;;;;;;;;;;;5042793;28;20007;-73
2023/06/12 09:40:52;;;;;;;;;;;;;;;;;;5037442;28;20611;-72
2023/06/12 09:43:19;;;;;;;;;;;;;;;;;;5036105;28;19925;-73
2023/06/12 09:45:46;;;;;;;;;;;;;;;;;;5045036;28;20015;-72
2023/06/12 09:48:13;;;;;;;;;;;;;;;;;;5035737;28;19972;-72
2023/06/12 09:50:40;;;;;;;;;;;;;;;;;;5036760;28;20011;-72
2023/06/12 09:53:07;;;;;;;;;;;;;;;;;;5042042;28;19926;-72
2023/06/12 09:55:34;;;;;;;;;;;;;;;;;;5040941;28;19925;-75
2023/06/12 09:58:02;;;;;;;;;;;;;;;;;;5043475;28;19929;-71
2023/06/12 10:00:29;;;;;;;;;;;;;;;;;;5043224;28;19982;-74
2023/06/12 10:02:57;;;;;;;;;;;;;;;;;;5041787;28;19929;-74
2023/06/12 10:05:24;;;;;;;;;;;;;;;;;;5042907;28;19932;-74
2023/06/12 10:07:51;;;;;;;;;;;;;;;;;;5041191;28;19925;-74
2023/06/12 10:10:18;;;;;;;;;;;;;;;;;;5050357;28;20258;-74
2023/06/12 10:12:45;;;;;;;;;;;;;;;;;;5049451;28;19928;-74
2023/06/12 10:15:12;;;;;;;;;;;;;;;;;;5044895;28;19931;-74
2023/06/12 10:17:39;;;;;;;;;;;;;;;;;;5039953;28;20023;-74
2023/06/12 10:20:07;;;;;;;;;;;;;;;;;;5037041;28;20345;-74
2023/06/12 10:22:34;;;;;;;;;;;;;;;;;;5050320;28;19925;-74
2023/06/12 10:25:01;;;;;;;;;;;;;;;;;;5053240;28;20015;-74
2023/06/12 10:27:28;;;;;;;;;;;;;;;;;;5055230;28;20402;-75
2023/06/12 10:29:55;;;;;;;;;;;;;;;;;;5042174;28;20323;-74
2023/06/12 10:32:22;;;;;;;;;;;;;;;;;;5044948;28;20281;-74
2023/06/12 10:34:50;;;;;;;;;;;;;;;;;;5046746;28;20023;-74
2023/06/12 10:37:18;;;;;;;;;;;;;;;;;;5050546;28;19933;-72
2023/06/12 10:39:45;;;;;;;;;;;;;;;;;;5053662;28;19936;-73
2023/06/12 10:42:12;;;;;;;;;;;;;;;;;;5052665;28;19979;-72
2023/06/12 10:44:39;;;;;;;;;;;;;;;;;;5052101;28;19975;-73
2023/06/12 10:47:06;;;;;;;;;;;;;;;;;;5042831;28;19925;-73
2023/06/12 10:49:33;;;;;;;;;;;;;;;;;;5053455;28;19924;-72
2023/06/12 10:52:00;;;;;;;;;;;;;;;;;;5057312;28;19929;-73
2023/06/12 10:54:27;;;;;;;;;;;;;;;;;;5050572;28;19931;-73
2023/06/12 10:56:54;;;;;;;;;;;;;;;;;;5050921;28;20000;-73
2023/06/12 10:59:21;;;;;;;;;;;;;;;;;;5052786;28;20015;-73
2023/06/12 11:01:48;;;;;;;;;;;;;;;;;;5051426;28;20020;-72
2023/06/12 11:04:15;;;;;;;;;;;;;;;;;;5047985;28;20012;-72
2023/06/12 11:06:42;;;;;;;;;;;;;;;;;;5052119;28;20590;-73
2023/06/12 11:09:09;;;;;;;;;;;;;;;;;;5052531;28;20303;-73
2023/06/12 11:11:37;;;;;;;;;;;;;;;;;;5051837;28;19925;-73
2023/06/12 11:14:04;;;;;;;;;;;;;;;;;;5040557;28;19944;-73
2023/06/12 11:16:31;;;;;;;;;;;;;;;;;;5056549;28;19960;-73
2023/06/12 11:18:58;;;;;;;;;;;;;;;;;;5055016;28;19976;-73
2023/06/12 11:21:25;;;;;;;;;;;;;;;;;;5046819;28;20403;-73
2023/06/12 11:23:52;;;;;;;;;;;;;;;;;;5046208;28;19924;-73
2023/06/12 11:26:20;;;;;;;;;;;;;;;;;;5050650;28;19931;-73
2023/06/12 11:28:47;;;;;;;;;;;;;;;;;;5060290;28;20373;-73
2023/06/12 11:31:14;;;;;;;;;;;;;;;;;;5049833;28;20323;-73
2023/06/12 11:33:41;;;;;;;;;;;;;;;;;;5049687;28;20294;-73
2023/06/12 11:36:08;;;;;;;;;;;;;;;;;;5053719;28;19986;-73
2023/06/12 11:38:35;;;;;;;;;;;;;;;;;;5050568;28;19971;-73
2023/06/12 11:41:02;;;;;;;;;;;;;;;;;;5048987;28;19964;-73
2023/06/12 11:43:30;;;;;;;;;;;;;;;;;;5044475;28;20358;-72
2023/06/12 11:45:57;;;;;;;;;;;;;;;;;;5063400;28;20015;-72
2023/06/12 11:48:24;;;;;;;;;;;;;;;;;;5049130;28;20443;-73
2023/06/12 11:50:51;;;;;;;;;;;;;;;;;;5046200;28;19979;-72
2023/06/12 11:53:18;;;;;;;;;;;;;;;;;;5043211;28;19925;-72
2023/06/12 11:55:45;;;;;;;;;;;;;;;;;;5034733;28;19980;-72
2023/06/12 11:58:12;;;;;;;;;;;;;;;;;;5049968;28;19933;-73
2023/06/12 12:00:40;;;;;;;;;;;;;;;;;;5050220;28;20015;-73
2023/06/12 12:03:08;;;;;;;;;;;;;;;;;;5045402;28;19932;-72
2023/06/12 12:05:35;;;;;;;;;;;;;;;;;;5039470;28;19929;-73
2023/06/12 12:08:03;;;;;;;;;;;;;;;;;;5038737;28;20398;-73
2023/06/12 12:10:30;;;;;;;;;;;;;;;;;;5039385;28;19929;-73
2023/06/12 12:12:59;;;;;;;;;;;;;;;;;;5036842;28;20024;-73
2023/06/12 12:15:26;;;;;;;;;;;;;;;;;;5043086;28;20571;-73
2023/06/12 12:17:53;;;;;;;;;;;;;;;;;;5046806;28;19968;-73
2023/06/12 12:20:20;;;;;;;;;;;;;;;;;;5046892;28;19965;-73
2023/06/12 12:22:47;;;;;;;;;;;;;;;;;;5043670;28;19983;-73
2023/06/12 12:25:15;;;;;;;;;;;;;;;;;;5049845;28;19924;-73
2023/06/12 12:27:44;;;;;;;;;;;;;;;;;;5049349;28;19943;-73
2023/06/12 12:30:14;;;;;;;;;;;;;;;;;;5044236;28;19929;-74
2023/06/12 12:32:41;;;;;;;;;;;;;;;;;;5044147;28;20352;-73
2023/06/12 12:35:08;;;;;;;;;;;;;;;;;;5049695;28;20028;-73
2023/06/12 12:37:35;;;;;;;;;;;;;;;;;;5042591;28;19975;-73
2023/06/12 12:40:05;;;;;;;;;;;;;;;;;;5051311;28;20023;-73
2023/06/12 12:42:32;;;;;;;;;;;;;;;;;;5050929;28;19929;-73
2023/06/12 12:44:59;;;;;;;;;;;;;;;;;;5050662;28;19964;-81
2023/06/12 12:47:26;;;;;;;;;;;;;;;;;;5044055;28;19925;-81
2023/06/12 12:49:53;;;;;;;;;;;;;;;;;;5050813;28;19924;-77
2023/06/12 12:52:20;;;;;;;;;;;;;;;;;;5045060;28;19968;-76
2023/06/12 12:54:47;;;;;;;;;;;;;;;;;;5053316;28;20027;-78
2023/06/12 12:57:14;;;;;;;;;;;;;;;;;;5052174;28;19928;-79
2023/06/12 12:59:43;;;;;;;;;;;;;;;;;;5046871;28;20027;-77
2023/06/12 13:02:10;;;;;;;;;;;;;;;;;;5043660;28;19944;-78
2023/06/12 13:04:37;;;;;;;;;;;;;;;;;;5040055;28;19924;-78
2023/06/12 13:07:04;;;;;;;;;;;;;;;;;;5045115;28;20372;-77
2023/06/12 13:09:31;;;;;;;;;;;;;;;;;;5040481;28;20372;-74
2023/06/12 13:11:58;;;;;;;;;;;;;;;;;;5046936;28;19972;-73
2023/06/12 13:14:26;;;;;;;;;;;;;;;;;;5036483;28;19939;-74
2023/06/12 13:16:53;;;;;;;;;;;;;;;;;;5045249;28;19934;-74
2023/06/12 13:19:20;;;;;;;;;;;;;;;;;;5052450;28;19933;-75
2023/06/12 13:21:47;;;;;;;;;;;;;;;;;;5044501;28;20425;-75
2023/06/12 13:24:14;;;;;;;;;;;;;;;;;;5049487;28;20360;-74
2023/06/12 13:26:41;;;;;;;;;;;;;;;;;;5052486;28;20012;-74
2023/06/12 13:29:08;;;;;;;;;;;;;;;;;;5032472;28;19925;-78
2023/06/12 13:31:35;;;;;;;;;;;;;;;;;;5040163;28;20024;-75
2023/06/12 13:34:04;;;;;;;;;;;;;;;;;;5040321;28;19960;-77
2023/06/12 13:36:31;;;;;;;;;;;;;;;;;;5035934;28;19925;-77
2023/06/12 13:38:58;;;;;;;;;;;;;;;;;;5042787;28;20019;-76
2023/06/12 13:41:25;;;;;;;;;;;;;;;;;;5036311;28;19925;-76
2023/06/12 13:43:52;;;;;;;;;;;;;;;;;;5042637;28;19960;-75
2023/06/12 13:46:19;;;;;;;;;;;;;;;;;;5038476;28;20296;-77
2023/06/12 13:48:45;;;;;;;;;;;;;;;;;;5032660;28;20017;-78
2023/06/12 13:51:13;;;;;;;;;;;;;;;;;;5045030;28;20023;-78
2023/06/12 13:53:40;;;;;;;;;;;;;;;;;;5041364;28;19925;-76
2023/06/12 13:56:08;;;;;;;;;;;;;;;;;;5047804;28;19925;-76
2023/06/12 13:58:35;;;;;;;;;;;;;;;;;;5051539;28;19925;-77
2023/06/12 14:01:02;;;;;;;;;;;;;;;;;;5035365;28;19948;-76
2023/06/12 14:03:29;;;;;;;;;;;;;;;;;;5043906;28;19929;-79
2023/06/12 14:05:56;;;;;;;;;;;;;;;;;;5038011;28;19968;-79
2023/06/12 14:08:23;;;;;;;;;;;;;;;;;;5043204;28;19983;-79
2023/06/12 14:10:50;;;;;;;;;;;;;;;;;;5059512;28;20007;-76
2023/06/12 14:13:18;;;;;;;;;;;;;;;;;;5041467;28;20350;-78
2023/06/12 14:15:45;;;;;;;;;;;;;;;;;;5032987;28;19995;-80
2023/06/12 14:18:12;;;;;;;;;;;;;;;;;;5037503;28;19990;-80
2023/06/12 14:20:39;;;;;;;;;;;;;;;;;;5046387;28;20379;-79
2023/06/12 14:23:06;;;;;;;;;;;;;;;;;;5043563;28;19932;-79
2023/06/12 14:25:33;;;;;;;;;;;;;;;;;;5047044;28;19963;-79
2023/06/12 14:28:01;;;;;;;;;;;;;;;;;;5049604;28;20372;-79
2023/06/12 14:30:28;;;;;;;;;;;;;;;;;;5051242;28;20011;-76
2023/06/12 14:32:55;;;;;;;;;;;;;;;;;;5053213;28;19965;-80
2023/06/12 14:35:23;;;;;;;;;;;;;;;;;;5046653;28;19925;-80
2023/06/12 14:37:50;;;;;;;;;;;;;;;;;;5044723;28;19925;-82
2023/06/12 14:40:17;;;;;;;;;;;;;;;;;;5050310;28;19924;-85
2023/06/12 14:42:44;;;;;;;;;;;;;;;;;;5053967;28;20362;-80
2023/06/12 14:45:19;;;;;;;;;;;;;;;;;;5033049;28;19925;-84
2023/06/12 14:47:46;;;;;;;;;;;;;;;;;;5044060;28;20027;-80
2023/06/12 14:50:13;;;;;;;;;;;;;;;;;;5046425;28;19929;-79
2023/06/12 14:52:40;;;;;;;;;;;;;;;;;;5045211;28;19929;-81
2023/06/12 14:55:07;;;;;;;;;;;;;;;;;;5060625;28;20407;-78
2023/06/12 14:57:34;;;;;;;;;;;;;;;;;;5043294;28;20019;-79
2023/06/12 15:00:01;;;;;;;;;;;;;;;;;;5051325;28;19969;-80
2023/06/12 15:02:29;;;;;;;;;;;;;;;;;;5051427;28;19970;-80
2023/06/12 15:04:56;;;;;;;;;;;;;;;;;;5051426;28;19928;-80
2023/06/12 15:07:23;;;;;;;;;;;;;;;;;;5049965;28;20031;-80
2023/06/12 15:09:50;;;;;;;;;;;;;;;;;;5044392;28;19971;-80
2023/06/12 15:12:17;;;;;;;;;;;;;;;;;;5052190;28;20015;-81
2023/06/12 15:14:44;;;;;;;;;;;;;;;;;;5048506;28;19932;-81
2023/06/12 15:17:11;;;;;;;;;;;;;;;;;;5050949;28;19924;-85
2023/06/12 15:19:38;;;;;;;;;;;;;;;;;;5055293;28;19964;-81
2023/06/12 15:22:05;;;;;;;;;;;;;;;;;;5047707;28;20461;-80
2023/06/12 15:24:32;;;;;;;;;;;;;;;;;;5042492;28;20008;-80
2023/06/12 15:26:59;;;;;;;;;;;;;;;;;;5037584;28;19991;-78
2023/06/12 15:29:26;;;;;;;;;;;;;;;;;;5040570;28;19925;-79
2023/06/12 15:31:53;;;;;;;;;;;;;;;;;;5049632;28;20043;-79
2023/06/12 15:34:20;;;;;;;;;;;;;;;;;;5050003;28;20446;-83
2023/06/12 15:36:47;;;;;;;;;;;;;;;;;;5047465;28;19928;-83
2023/06/12 15:39:14;;;;;;;;;;;;;;;;;;5035361;28;19981;-81
2023/06/12 15:41:41;;;;;;;;;;;;;;;;;;5044495;28;19929;-85
2023/06/12 15:44:08;;;;;;;;;;;;;;;;;;5047368;28;19932;-82
2023/06/12 15:46:35;;;;;;;;;;;;;;;;;;5049787;28;20019;-81
2023/06/12 15:49:02;;;;;;;;;;;;;;;;;;5053880;28;19947;-82
2023/06/12 15:51:29;;;;;;;;;;;;;;;;;;5055062;28;19964;-81
2023/06/12 15:53:56;;;;;;;;;;;;;;;;;;5048979;28;20031;-81
2023/06/12 15:56:25;;;;;;;;;;;;;;;;;;5054333;28;19932;-81
2023/06/12 15:58:52;;;;;;;;;;;;;;;;;;5046310;28;19933;-81
2023/06/12 16:01:19;;;;;;;;;;;;;;;;;;5052328;28;19968;-81
2023/06/12 16:03:46;;;;;;;;;;;;;;;;;;5049167;28;19929;-81
2023/06/12 16:06:14;;;;;;;;;;;;;;;;;;5054698;28;20375;-80
2023/06/12 16:08:41;;;;;;;;;;;;;;;;;;5048533;28;19925;-78
2023/06/12 16:11:08;;;;;;;;;;;;;;;;;;5052576;28;19947;-80
2023/06/12 16:13:36;;;;;;;;;;;;;;;;;;5051665;28;19925;-81
2023/06/12 16:16:03;;;;;;;;;;;;;;;;;;5040735;28;20016;-81
2023/06/12 16:18:30;;;;;;;;;;;;;;;;;;5051723;28;20007;-81
2023/06/12 16:20:57;;;;;;;;;;;;;;;;;;5046417;28;19951;-80
2023/06/12 16:23:24;;;;;;;;;;;;;;;;;;5053367;28;19986;-81
2023/06/12 16:25:51;;;;;;;;;;;;;;;;;;5051264;28;19928;-79
2023/06/12 16:28:18;;;;;;;;;;;;;;;;;;5053039;28;19964;-80
2023/06/12 16:30:45;;;;;;;;;;;;;;;;;;5050515;28;20291;-79
2023/06/12 16:33:12;;;;;;;;;;;;;;;;;;5047761;28;20404;-80
2023/06/12 16:35:39;;;;;;;;;;;;;;;;;;5033567;28;19929;-80
2023/06/12 16:38:07;;;;;;;;;;;;;;;;;;5039818;28;19925;-79
2023/06/12 16:40:34;;;;;;;;;;;;;;;;;;5035570;28;19932;-79
2023/06/12 16:43:01;;;;;;;;;;;;;;;;;;5040398;28;19929;-79
2023/06/12 16:45:29;;;;;;;;;;;;;;;;;;5046308;28;20046;-79